createdAt,value
2017-04-30T00:01:45.730Z,75.70
2017-04-30T00:04:14.785Z,75.40
2017-04-30T00:06:43.832Z,74.90
2017-04-30T00:09:13.653Z,75.10
2017-04-30T00:11:43.463Z,76.10
2017-04-30T00:14:13.281Z,76.60
2017-04-30T00:16:43.062Z,76.50
2017-04-30T00:19:12.918Z,74.80
2017-04-30T00:21:42.007Z,75.70
2017-04-30T00:24:11.822Z,75.70
2017-04-30T00:26:41.720Z,75.80
2017-04-30T00:29:10.830Z,76.40
2017-04-30T00:31:40.638Z,76.20
2017-04-30T00:34:10.442Z,77.00
2017-04-30T00:36:39.489Z,77.10
2017-04-30T00:39:08.534Z,77.00
2017-04-30T00:41:38.345Z,76.40
2017-04-30T00:44:08.132Z,76.90
2017-04-30T00:46:37.182Z,76.60
2017-04-30T00:49:06.348Z,75.20
2017-04-30T00:51:35.454Z,76.40
2017-04-30T00:54:05.238Z,74.80
2017-04-30T00:56:34.293Z,74.80
2017-04-30T00:59:03.353Z,75.50
2017-04-30T01:01:33.159Z,75.40
2017-04-30T01:04:02.257Z,75.70
2017-04-30T01:06:32.092Z,76.60
2017-04-30T01:09:01.121Z,75.90
2017-04-30T01:11:30.176Z,76.30
2017-04-30T01:13:59.221Z,76.20
2017-04-30T01:16:28.349Z,77.50
2017-04-30T01:18:58.130Z,78.50
2017-04-30T01:21:27.265Z,77.60
2017-04-30T01:23:57.117Z,76.60
2017-04-30T01:26:26.281Z,76.70
2017-04-30T01:28:56.061Z,77.60
2017-04-30T01:31:25.181Z,78.20
2017-04-30T01:33:55.007Z,79.10
2017-04-30T01:36:24.815Z,78.30
2017-04-30T01:38:54.625Z,78.50
2017-04-30T01:41:24.432Z,77.50
2017-04-30T01:43:54.229Z,78.00
2017-04-30T01:46:23.346Z,78.50
2017-04-30T01:48:53.258Z,78.90
2017-04-30T01:51:22.284Z,79.20
2017-04-30T01:53:51.462Z,78.70
2017-04-30T01:56:21.275Z,78.80
2017-04-30T01:58:51.067Z,77.90
2017-04-30T02:01:20.104Z,78.30
2017-04-30T02:03:49.166Z,79.00
2017-04-30T02:06:18.954Z,78.10
2017-04-30T02:08:48.080Z,78.10
2017-04-30T02:11:17.892Z,78.10
2017-04-30T02:13:47.706Z,77.80
2017-04-30T02:16:17.518Z,77.70
2017-04-30T02:18:47.337Z,78.10
2017-04-30T02:21:17.141Z,78.00
2017-04-30T02:23:46.953Z,78.00
2017-04-30T02:26:16.767Z,77.30
2017-04-30T02:28:46.583Z,77.80
2017-04-30T02:31:16.380Z,78.00
2017-04-30T02:33:45.484Z,77.90
2017-04-30T02:36:15.285Z,77.50
2017-04-30T02:38:44.390Z,77.60
2017-04-30T02:41:14.219Z,79.20
2017-04-30T02:43:44.024Z,78.90
2017-04-30T02:46:13.828Z,78.60
2017-04-30T02:48:42.862Z,78.90
2017-04-30T02:51:12.035Z,79.70
2017-04-30T02:53:41.837Z,79.10
2017-04-30T02:56:11.658Z,78.00
2017-04-30T02:58:41.457Z,79.00
2017-04-30T03:01:11.268Z,78.80
2017-04-30T03:03:41.055Z,79.10
2017-04-30T03:06:10.138Z,79.00
2017-04-30T03:08:39.286Z,79.10
2017-04-30T03:11:09.103Z,79.50
2017-04-30T03:13:39.005Z,79.60
2017-04-30T03:16:08.791Z,79.80
2017-04-30T03:18:37.923Z,79.70
2017-04-30T03:21:07.711Z,80.10
2017-04-30T03:23:36.840Z,80.30
2017-04-30T03:26:06.636Z,80.10
2017-04-30T03:28:36.433Z,81.80
2017-04-30T03:31:05.478Z,81.60
2017-04-30T03:33:34.543Z,82.00
2017-04-30T03:36:04.358Z,81.90
2017-04-30T03:38:46.264Z,82.60
2017-04-30T03:41:27.922Z,82.50
2017-04-30T03:44:09.031Z,82.60
2017-04-30T03:46:50.824Z,82.60
2017-04-30T03:49:32.722Z,82.20
2017-04-30T03:52:14.610Z,82.90
2017-04-30T03:54:56.433Z,82.90
2017-04-30T03:57:37.487Z,83.20
2017-04-30T04:00:19.374Z,83.90
2017-04-30T04:03:01.001Z,82.50
2017-04-30T04:05:42.056Z,82.70
2017-04-30T04:08:23.791Z,82.60
2017-04-30T04:11:04.817Z,82.00
2017-04-30T04:13:45.795Z,81.90
2017-04-30T04:16:27.673Z,82.00
2017-04-30T04:19:09.510Z,82.70
2017-04-30T04:21:50.654Z,82.40
2017-04-30T04:24:32.443Z,82.80
2017-04-30T04:27:14.245Z,82.00
2017-04-30T04:29:56.034Z,81.90
2017-04-30T04:32:37.831Z,83.00
2017-04-30T04:35:19.631Z,81.60
2017-04-30T04:38:01.324Z,81.80
2017-04-30T04:40:42.286Z,81.50
2017-04-30T04:43:24.187Z,82.20
2017-04-30T04:46:06.076Z,82.10
2017-04-30T04:48:47.054Z,81.60
2017-04-30T04:51:28.840Z,81.40
2017-04-30T04:54:10.536Z,81.40
2017-04-30T04:56:52.406Z,80.20
2017-04-30T04:59:33.449Z,80.30
2017-04-30T05:02:14.481Z,79.70
2017-04-30T05:04:56.236Z,79.40
2017-04-30T05:07:37.219Z,79.00
2017-04-30T05:10:18.235Z,79.10
2017-04-30T05:13:00.029Z,78.60
2017-04-30T05:15:41.909Z,78.20
2017-04-30T05:18:22.798Z,78.50
2017-04-30T05:21:04.690Z,78.50
2017-04-30T05:23:46.373Z,77.80
2017-04-30T05:26:28.267Z,77.70
2017-04-30T05:29:09.307Z,76.60
2017-04-30T05:31:50.194Z,76.60
2017-04-30T05:34:31.413Z,76.60
2017-04-30T05:37:13.211Z,76.10
2017-04-30T05:39:55.038Z,75.90
2017-04-30T05:42:36.075Z,75.80
2017-04-30T05:45:17.973Z,75.70
2017-04-30T05:47:59.762Z,75.00
2017-04-30T05:50:41.444Z,75.40
2017-04-30T05:53:23.346Z,75.40
2017-04-30T05:56:05.133Z,75.70
2017-04-30T05:58:47.043Z,75.80
2017-04-30T06:01:28.772Z,75.70
2017-04-30T06:04:09.698Z,76.90
2017-04-30T06:06:51.485Z,75.50
2017-04-30T06:09:32.664Z,75.40
2017-04-30T06:12:13.753Z,75.40
2017-04-30T06:14:55.550Z,74.70
2017-04-30T06:17:37.383Z,74.40
2017-04-30T06:20:18.513Z,73.80
2017-04-30T06:22:59.584Z,73.20
2017-04-30T06:25:40.720Z,73.10
2017-04-30T06:28:21.851Z,72.70
2017-04-30T06:31:03.457Z,73.40
2017-04-30T06:33:45.008Z,72.30
2017-04-30T06:36:25.916Z,71.80
2017-04-30T06:39:07.586Z,71.20
2017-04-30T06:41:48.578Z,70.10
2017-04-30T06:44:30.453Z,70.10
2017-04-30T06:47:11.529Z,70.00
2017-04-30T06:49:52.510Z,69.30
2017-04-30T06:52:34.374Z,69.30
2017-04-30T06:55:15.467Z,67.00
2017-04-30T06:57:56.571Z,67.40
2017-04-30T07:00:38.450Z,67.00
2017-04-30T07:03:19.536Z,65.60
2017-04-30T07:06:00.669Z,65.50
2017-04-30T07:08:41.795Z,64.70
2017-04-30T07:11:23.586Z,63.40
2017-04-30T07:14:05.384Z,63.30
2017-04-30T07:16:47.069Z,63.20
2017-04-30T07:19:28.155Z,63.10
2017-04-30T07:22:09.936Z,61.70
2017-04-30T07:24:50.819Z,62.10
2017-04-30T07:27:31.782Z,61.80
2017-04-30T07:30:12.880Z,61.90
2017-04-30T07:32:54.603Z,61.60
2017-04-30T07:35:35.630Z,61.10
2017-04-30T07:38:17.449Z,61.00
2017-04-30T07:40:58.465Z,60.40
2017-04-30T07:43:27.493Z,60.20
2017-04-30T07:45:56.533Z,59.50
2017-04-30T07:48:25.586Z,59.10
2017-04-30T07:50:55.365Z,58.50
2017-04-30T07:53:24.422Z,56.70
2017-04-30T07:55:53.495Z,56.90
2017-04-30T07:58:23.293Z,56.30
2017-04-30T08:00:52.343Z,55.40
2017-04-30T08:03:21.398Z,55.20
2017-04-30T08:05:51.213Z,55.10
2017-04-30T08:08:21.026Z,54.70
2017-04-30T08:10:50.800Z,56.80
2017-04-30T08:13:19.855Z,56.60
2017-04-30T08:15:48.913Z,55.40
2017-04-30T08:18:17.953Z,55.60
2017-04-30T08:20:46.985Z,54.10
2017-04-30T08:23:16.029Z,54.10
2017-04-30T08:25:45.073Z,52.70
2017-04-30T08:28:14.202Z,53.40
2017-04-30T08:30:44.102Z,50.80
2017-04-30T08:33:13.138Z,51.70
2017-04-30T08:35:42.195Z,51.30
2017-04-30T08:38:12.021Z,51.80
2017-04-30T08:40:41.934Z,52.30
2017-04-30T08:43:11.230Z,52.20
2017-04-30T08:45:41.035Z,51.50
2017-04-30T08:48:10.137Z,50.80
2017-04-30T08:50:39.940Z,49.90
2017-04-30T08:53:08.967Z,49.20
2017-04-30T08:55:38.058Z,48.60
2017-04-30T08:58:07.147Z,48.20
2017-04-30T09:00:36.956Z,47.90
2017-04-30T09:03:06.766Z,47.00
2017-04-30T09:05:36.560Z,47.60
2017-04-30T09:08:05.665Z,48.10
2017-04-30T09:10:35.466Z,48.10
2017-04-30T09:13:04.494Z,47.50
2017-04-30T09:15:33.541Z,47.70
2017-04-30T09:18:02.576Z,48.60
2017-04-30T09:20:32.389Z,47.10
2017-04-30T09:23:02.189Z,47.20
2017-04-30T09:25:32.523Z,46.20
2017-04-30T09:28:02.299Z,46.50
2017-04-30T09:30:31.357Z,47.40
2017-04-30T09:33:00.407Z,46.70
2017-04-30T09:35:29.434Z,46.50
2017-04-30T09:37:58.505Z,47.00
2017-04-30T09:40:27.536Z,46.30
2017-04-30T09:42:56.591Z,45.80
2017-04-30T09:45:25.627Z,46.50
2017-04-30T09:47:54.683Z,45.50
2017-04-30T09:50:23.794Z,46.40
2017-04-30T09:52:53.601Z,46.30
2017-04-30T09:55:23.420Z,46.80
2017-04-30T09:57:53.215Z,45.40
2017-04-30T10:00:22.245Z,45.60
2017-04-30T10:02:51.303Z,44.10
2017-04-30T10:05:20.329Z,45.60
2017-04-30T10:07:49.373Z,46.10
2017-04-30T10:10:18.498Z,44.60
2017-04-30T10:12:47.587Z,44.60
2017-04-30T10:15:16.617Z,45.10
2017-04-30T10:17:45.681Z,44.40
2017-04-30T10:20:15.475Z,44.00
2017-04-30T10:22:44.535Z,42.50
2017-04-30T10:25:13.596Z,43.40
2017-04-30T10:27:43.406Z,44.00
2017-04-30T10:30:13.189Z,42.80
2017-04-30T10:32:42.240Z,43.20
2017-04-30T10:35:11.289Z,42.60
2017-04-30T10:37:40.421Z,41.70
2017-04-30T10:40:09.465Z,42.60
2017-04-30T10:42:38.512Z,42.10
2017-04-30T10:45:07.590Z,43.30
2017-04-30T10:47:37.399Z,43.00
2017-04-30T10:50:07.198Z,42.90
2017-04-30T10:52:36.297Z,43.00
2017-04-30T10:55:06.117Z,42.20
2017-04-30T10:57:35.939Z,44.50
2017-04-30T11:00:05.835Z,42.70
2017-04-30T11:02:34.879Z,41.80
2017-04-30T11:05:04.043Z,41.70
2017-04-30T11:07:33.815Z,41.80
2017-04-30T11:10:02.950Z,42.20
2017-04-30T11:12:33.579Z,41.80
2017-04-30T11:15:03.394Z,40.50
2017-04-30T11:17:33.186Z,42.30
2017-04-30T11:20:02.307Z,40.40
2017-04-30T11:22:32.160Z,42.20
2017-04-30T11:25:01.189Z,42.30
2017-04-30T11:27:30.240Z,40.50
2017-04-30T11:29:59.273Z,41.40
2017-04-30T11:32:28.324Z,40.60
2017-04-30T11:34:57.361Z,41.30
2017-04-30T11:37:26.421Z,40.10
2017-04-30T11:39:55.481Z,39.30
2017-04-30T11:42:25.277Z,38.70
2017-04-30T11:44:54.386Z,40.40
2017-04-30T11:47:24.194Z,40.10
2017-04-30T11:49:53.999Z,41.00
2017-04-30T11:52:23.056Z,38.20
2017-04-30T11:54:52.189Z,37.80
2017-04-30T11:57:21.625Z,39.70
2017-04-30T11:59:50.673Z,37.60
2017-04-30T12:02:19.790Z,38.40
2017-04-30T12:04:49.597Z,37.20
2017-04-30T12:07:18.654Z,38.90
2017-04-30T12:09:47.799Z,36.40
2017-04-30T12:12:17.701Z,38.20
2017-04-30T12:14:46.831Z,35.40
2017-04-30T12:17:15.863Z,34.20
2017-04-30T12:19:44.918Z,31.50
2017-04-30T12:22:13.949Z,29.50
2017-04-30T12:24:42.996Z,28.30
2017-04-30T12:27:12.782Z,26.50
2017-04-30T12:29:41.901Z,25.50
2017-04-30T12:32:11.670Z,22.40
2017-04-30T12:34:40.731Z,21.10
2017-04-30T12:37:09.756Z,21.00
2017-04-30T12:39:38.819Z,19.90
2017-04-30T12:42:07.890Z,19.50
2017-04-30T12:44:37.013Z,18.10
2017-04-30T12:47:06.047Z,17.90
2017-04-30T12:49:35.187Z,18.60
2017-04-30T12:52:04.990Z,17.80
2017-04-30T12:54:34.901Z,16.50
2017-04-30T12:57:04.053Z,16.80
2017-04-30T12:59:33.115Z,18.10
2017-04-30T13:02:02.913Z,18.40
2017-04-30T13:04:32.733Z,18.40
2017-04-30T13:07:02.538Z,18.20
2017-04-30T13:09:32.366Z,19.00
2017-04-30T13:12:01.446Z,17.70
2017-04-30T13:14:31.352Z,20.60
2017-04-30T13:17:00.394Z,20.20
2017-04-30T13:19:29.461Z,19.10
2017-04-30T13:21:59.271Z,18.70
2017-04-30T13:24:29.073Z,19.00
2017-04-30T13:26:58.190Z,17.90
2017-04-30T13:29:27.991Z,17.80
2017-04-30T13:31:57.786Z,17.60
2017-04-30T13:34:26.898Z,17.70
2017-04-30T13:36:56.679Z,17.50
2017-04-30T13:39:25.807Z,16.90
2017-04-30T13:41:55.618Z,18.70
2017-04-30T13:44:25.431Z,19.30
2017-04-30T13:46:55.210Z,18.60
2017-04-30T13:49:24.336Z,17.90
2017-04-30T13:51:54.111Z,19.10
2017-04-30T13:54:23.242Z,18.40
2017-04-30T13:56:52.285Z,20.00
2017-04-30T13:59:21.428Z,18.00
2017-04-30T14:01:50.477Z,17.90
2017-04-30T14:04:19.504Z,19.00
2017-04-30T14:06:48.562Z,18.50
2017-04-30T14:09:17.709Z,16.20
2017-04-30T14:11:46.898Z,15.70
2017-04-30T14:14:16.014Z,17.40
2017-04-30T14:16:45.921Z,17.20
2017-04-30T14:19:14.954Z,17.80
2017-04-30T14:21:43.985Z,18.00
2017-04-30T14:24:13.045Z,17.30
2017-04-30T14:26:42.098Z,18.80
2017-04-30T14:29:11.159Z,18.30
2017-04-30T14:31:40.204Z,17.80
2017-04-30T14:34:10.003Z,18.40
2017-04-30T14:36:39.106Z,17.90
2017-04-30T14:39:08.910Z,17.40
2017-04-30T14:41:38.009Z,17.90
2017-04-30T14:44:07.109Z,17.80
2017-04-30T14:46:36.896Z,18.40
2017-04-30T14:49:05.931Z,17.60
2017-04-30T14:51:35.822Z,17.30
2017-04-30T14:54:04.857Z,18.50
2017-04-30T14:56:33.914Z,18.40
2017-04-30T14:59:03.027Z,18.60
2017-04-30T15:01:32.815Z,18.70
2017-04-30T15:04:01.858Z,18.60
2017-04-30T15:06:30.888Z,18.00
2017-04-30T15:09:00.014Z,17.90
2017-04-30T15:11:29.785Z,18.00
2017-04-30T15:13:58.847Z,19.10
2017-04-30T15:16:27.887Z,19.40
2017-04-30T15:18:56.967Z,19.30
2017-04-30T15:21:26.186Z,19.80
2017-04-30T15:24:00.604Z,19.90
2017-04-30T15:26:31.563Z,19.20
2017-04-30T15:29:00.678Z,20.20
2017-04-30T15:31:30.453Z,19.80
2017-04-30T15:34:00.265Z,20.40
2017-04-30T15:36:33.779Z,20.20
2017-04-30T15:39:02.893Z,21.00
2017-04-30T15:41:32.025Z,20.80
2017-04-30T15:44:01.097Z,21.50
2017-04-30T15:46:30.129Z,20.20
2017-04-30T15:49:01.527Z,20.10
2017-04-30T15:51:31.435Z,19.90
2017-04-30T15:54:00.453Z,20.70
2017-04-30T15:56:29.515Z,21.30
2017-04-30T15:58:58.635Z,21.50
2017-04-30T16:01:28.439Z,21.40
2017-04-30T16:03:57.543Z,21.80
2017-04-30T16:06:27.446Z,23.30
2017-04-30T16:08:56.503Z,23.70
2017-04-30T16:11:25.550Z,23.50
2017-04-30T16:13:55.470Z,22.80
2017-04-30T16:16:25.263Z,22.50
2017-04-30T16:18:54.370Z,22.40
2017-04-30T16:21:24.155Z,21.90
2017-04-30T16:23:53.369Z,21.80
2017-04-30T16:26:22.391Z,22.10
2017-04-30T16:28:51.443Z,22.90
2017-04-30T16:31:20.473Z,22.90
2017-04-30T16:33:49.525Z,23.00
2017-04-30T16:36:18.597Z,22.80
2017-04-30T16:38:47.745Z,23.10
2017-04-30T16:41:17.554Z,23.30
2017-04-30T16:43:46.600Z,24.10
2017-04-30T16:46:15.654Z,23.80
2017-04-30T16:48:45.522Z,24.00
2017-04-30T16:51:14.579Z,23.70
2017-04-30T16:53:43.662Z,24.40
2017-04-30T16:56:13.446Z,23.60
2017-04-30T16:58:42.573Z,23.90
2017-04-30T17:01:12.366Z,24.10
2017-04-30T17:03:41.481Z,24.40
2017-04-30T17:06:11.293Z,23.70
2017-04-30T17:08:41.101Z,23.90
2017-04-30T17:11:10.909Z,23.30
2017-04-30T17:13:40.735Z,23.30
2017-04-30T17:16:10.544Z,24.40
2017-04-30T17:18:40.348Z,24.50
2017-04-30T17:21:10.120Z,24.00
2017-04-30T17:23:39.170Z,23.90
2017-04-30T17:26:08.202Z,25.00
2017-04-30T17:28:37.261Z,25.00
2017-04-30T17:31:06.433Z,24.80
2017-04-30T17:33:35.450Z,24.80
2017-04-30T17:36:05.354Z,25.50
2017-04-30T17:38:35.163Z,25.40
2017-04-30T17:41:04.954Z,25.20
2017-04-30T17:43:33.993Z,25.10
2017-04-30T17:46:03.066Z,26.10
2017-04-30T17:48:32.878Z,26.10
2017-04-30T17:51:02.690Z,26.60
2017-04-30T17:53:32.497Z,27.90
2017-04-30T17:56:01.593Z,27.70
2017-04-30T17:58:30.698Z,28.20
2017-04-30T18:01:00.596Z,28.20
2017-04-30T18:03:29.701Z,28.90
2017-04-30T18:05:59.517Z,29.00
2017-04-30T18:08:28.614Z,29.00
2017-04-30T18:10:58.522Z,29.10
2017-04-30T18:13:27.600Z,29.20
2017-04-30T18:15:56.639Z,30.80
2017-04-30T18:18:25.697Z,32.00
2017-04-30T18:20:54.828Z,33.90
2017-04-30T18:23:24.744Z,35.00
2017-04-30T18:25:54.542Z,36.30
2017-04-30T18:28:24.350Z,36.80
2017-04-30T18:30:53.482Z,37.70
2017-04-30T18:33:22.556Z,38.10
2017-04-30T18:35:52.342Z,39.10
2017-04-30T18:38:21.458Z,38.70
2017-04-30T18:40:51.262Z,38.80
2017-04-30T18:43:20.294Z,39.10
2017-04-30T18:45:49.358Z,39.30
2017-04-30T18:48:18.499Z,39.50
2017-04-30T18:50:47.560Z,40.10
2017-04-30T18:53:17.456Z,40.40
2017-04-30T18:55:46.567Z,40.60
2017-04-30T18:58:16.343Z,41.10
2017-04-30T19:00:45.472Z,41.50
2017-04-30T19:03:15.254Z,41.60
2017-04-30T19:05:44.301Z,41.90
2017-04-30T19:08:13.372Z,42.40
2017-04-30T19:10:42.481Z,42.70
2017-04-30T19:13:12.383Z,42.80
2017-04-30T19:15:42.165Z,43.20
2017-04-30T19:18:11.214Z,43.40
2017-04-30T19:20:40.278Z,43.90
2017-04-30T19:23:09.336Z,44.30
2017-04-30T19:25:38.363Z,45.30
2017-04-30T19:28:07.470Z,45.70
2017-04-30T19:30:37.279Z,46.20
2017-04-30T19:33:06.374Z,46.50
2017-04-30T19:35:35.482Z,46.40
2017-04-30T19:38:04.493Z,47.00
2017-04-30T19:40:33.541Z,47.30
2017-04-30T19:43:02.655Z,47.60
2017-04-30T19:45:31.881Z,47.60
2017-04-30T19:48:01.049Z,47.60
2017-04-30T19:50:30.161Z,47.90
2017-04-30T19:52:59.938Z,47.90
2017-04-30T19:55:28.965Z,48.20
2017-04-30T19:57:58.778Z,48.50
2017-04-30T20:00:28.591Z,48.70
2017-04-30T20:02:57.632Z,49.20
2017-04-30T20:05:26.677Z,49.30
2017-04-30T20:07:56.466Z,49.40
2017-04-30T20:10:25.495Z,50.10
2017-04-30T20:12:55.283Z,50.50
2017-04-30T20:15:24.376Z,50.90
2017-04-30T20:17:53.426Z,50.90
2017-04-30T20:20:22.503Z,51.20
2017-04-30T20:22:51.573Z,51.40
2017-04-30T20:25:21.381Z,51.80
2017-04-30T20:27:51.211Z,51.90
2017-04-30T20:30:21.049Z,52.30
2017-04-30T20:32:50.106Z,52.60
2017-04-30T20:35:19.130Z,52.50
2017-04-30T20:37:48.181Z,52.80
2017-04-30T20:40:17.234Z,53.00
2017-04-30T20:42:46.275Z,53.30
2017-04-30T20:45:15.390Z,53.10
2017-04-30T20:47:45.211Z,53.30
2017-04-30T20:50:15.183Z,53.50
2017-04-30T20:52:44.230Z,53.90
2017-04-30T20:55:13.281Z,53.90
2017-04-30T20:57:42.323Z,54.00
2017-04-30T21:00:11.390Z,54.10
2017-04-30T21:02:41.191Z,54.30
2017-04-30T21:05:10.227Z,54.50
2017-04-30T21:07:39.303Z,54.70
2017-04-30T21:10:09.091Z,55.00
2017-04-30T21:12:38.145Z,55.10
2017-04-30T21:15:07.201Z,55.10
2017-04-30T21:17:37.001Z,55.30
2017-04-30T21:20:06.310Z,55.30
2017-04-30T21:22:35.412Z,55.50
2017-04-30T21:25:05.228Z,55.60
2017-04-30T21:27:35.039Z,55.30
2017-04-30T21:30:04.850Z,55.50
2017-04-30T21:32:34.657Z,55.70
2017-04-30T21:35:04.452Z,55.60
2017-04-30T21:37:33.572Z,56.00
2017-04-30T21:40:02.620Z,56.20
2017-04-30T21:42:31.666Z,56.30
2017-04-30T21:45:01.455Z,56.50
2017-04-30T21:47:30.501Z,56.50
2017-04-30T21:49:59.674Z,56.50
2017-04-30T21:52:29.453Z,56.40
2017-04-30T21:54:58.568Z,56.60
2017-04-30T21:57:28.388Z,56.70
2017-04-30T21:59:58.181Z,57.10
2017-04-30T22:02:27.241Z,57.10
2017-04-30T22:04:56.276Z,57.10
2017-04-30T22:07:25.403Z,57.10
2017-04-30T22:09:54.443Z,57.40
2017-04-30T22:12:23.509Z,57.40
2017-04-30T22:14:52.568Z,57.30
2017-04-30T22:17:21.622Z,57.40
2017-04-30T22:19:50.786Z,57.60
2017-04-30T22:22:20.997Z,58.00
2017-04-30T22:24:50.077Z,58.00
2017-04-30T22:27:19.908Z,58.00
2017-04-30T22:29:48.953Z,57.90
2017-04-30T22:32:18.134Z,58.00
2017-04-30T22:34:47.180Z,58.30
2017-04-30T22:37:16.990Z,58.20
2017-04-30T22:39:46.821Z,58.00
2017-04-30T22:42:15.878Z,58.10
2017-04-30T22:44:44.935Z,58.10
2017-04-30T22:47:13.982Z,58.30
2017-04-30T22:49:43.076Z,58.20
2017-04-30T22:52:12.110Z,58.50
2017-04-30T22:54:41.179Z,58.70
2017-04-30T22:57:10.999Z,58.60
2017-04-30T22:59:40.806Z,58.30
2017-04-30T23:02:10.627Z,58.30
2017-04-30T23:04:40.404Z,58.40
2017-04-30T23:07:09.532Z,58.10
2017-04-30T23:09:38.577Z,58.20
2017-04-30T23:12:07.726Z,58.30
2017-04-30T23:14:37.504Z,58.30
2017-04-30T23:17:06.571Z,58.00
2017-04-30T23:19:35.614Z,58.10
2017-04-30T23:22:05.423Z,58.30
2017-04-30T23:24:34.471Z,58.40
2017-04-30T23:27:03.558Z,58.40
2017-04-30T23:29:32.611Z,58.00
2017-04-30T23:32:02.397Z,58.30
2017-04-30T23:34:31.455Z,57.90
2017-04-30T23:37:00.514Z,58.30
2017-04-30T23:39:30.348Z,58.00
2017-04-30T23:41:59.392Z,58.50
2017-04-30T23:44:28.463Z,58.10
2017-04-30T23:46:57.516Z,58.30
2017-04-30T23:49:27.316Z,58.50
2017-04-30T23:51:56.556Z,58.70
2017-04-30T23:54:25.625Z,58.40
2017-04-30T23:56:55.402Z,58.40
2017-04-30T23:59:24.550Z,58.70
